Terminal Aerodrome Forecast
Issued by NWS

Home | Current Version | Previous Version | Text Only | Print | Product List | Glossary On
Versions: 1 2 3 4 5 6 7 8 9 10 11 12 13 14 15 16
000
FTUS44 KLZK 171700 RRA
TAFLIT
TAF
KLIT 171745Z 1718/1818 06004KT P6SM BKN120 BKN250
     FM180000 06005KT P6SM VCSH SCT050 BKN100
      TEMPO 1802/1806 -RA BKN050
     FM180600 07006KT P6SM -RA SCT020 OVC050
      TEMPO 1807/1811 5SM -RA BR OVC015
     FM181100 08006KT 5SM BR SCT007 OVC015
      TEMPO 1811/1815 3SM -RA BR OVC007
     FM181500 09006KT 5SM BR OVC012=

USA.gov is the U.S. government's official web portal to all federal, state and local government web resources and services.